Time;durP1;ratioP1;P1;durP2;ratioP2;P2;SDS_P1;SDS_P2;PMS_P1;PMS_P2;Temp;Humidity;BMP_temperature;BMP_pressure;BME280_temperature;BME280_humidity;BME280_pressure;Samples;Min_cycle;Max_cycle;Signal;HPM_P1;HPM_P2
2022/02/27 00:00:15;;;;;;;10.33;5.37;;;6.40;99.90;;;;;;6151526;23;20531;-85
2022/02/27 00:02:41;;;;;;;14.80;6.00;;;6.50;99.90;;;;;;6152479;23;20151;-85
2022/02/27 00:05:07;;;;;;;13.30;5.23;;;6.40;99.90;;;;;;6151047;23;20490;-85
2022/02/27 00:07:33;;;;;;;14.73;6.27;;;6.30;99.90;;;;;;6151106;23;20153;-85
2022/02/27 00:09:59;;;;;;;13.27;5.47;;;6.40;99.90;;;;;;6150907;23;20539;-86
2022/02/27 00:12:25;;;;;;;11.30;5.10;;;6.50;99.90;;;;;;6150687;23;20164;-85
2022/02/27 00:14:51;;;;;;;11.93;5.10;;;6.50;99.90;;;;;;6150720;23;20148;-85
2022/02/27 00:17:16;;;;;;;14.60;4.90;;;6.50;99.90;;;;;;6150548;23;20182;-85
2022/02/27 00:19:42;;;;;;;10.70;5.00;;;6.30;99.90;;;;;;6151022;23;20231;-85
2022/02/27 00:22:07;;;;;;;9.60;4.77;;;6.30;99.90;;;;;;6150837;23;20205;-85
2022/02/27 00:24:36;;;;;;;14.23;5.57;;;6.40;99.90;;;;;;6150899;23;20167;-86
2022/02/27 00:27:03;;;;;;;13.87;5.20;;;6.30;99.90;;;;;;6150883;23;20148;-85
2022/02/27 00:29:29;;;;;;;11.77;4.77;;;6.40;99.90;;;;;;6150917;23;20627;-84
2022/02/27 00:31:57;;;;;;;13.93;5.60;;;6.50;99.90;;;;;;6150853;23;20152;-85
2022/02/27 00:34:24;;;;;;;16.73;4.40;;;6.50;99.90;;;;;;6151225;23;20173;-85
2022/02/27 00:36:52;;;;;;;20.80;6.73;;;6.40;99.90;;;;;;6151079;23;20160;-85
2022/02/27 00:39:20;;;;;;;12.93;4.63;;;6.30;99.90;;;;;;6151129;23;20655;-85
2022/02/27 00:41:47;;;;;;;12.43;4.90;;;6.30;99.90;;;;;;6150417;23;20160;-90
2022/02/27 00:44:16;;;;;;;11.50;4.47;;;6.30;99.90;;;;;;6151755;23;20204;-91
2022/02/27 00:46:45;;;;;;;12.57;4.10;;;6.40;99.90;;;;;;6151354;23;20178;-91
2022/02/27 00:49:13;;;;;;;10.60;4.43;;;6.30;99.90;;;;;;6151605;23;20254;-91
2022/02/27 00:51:40;;;;;;;13.27;4.70;;;6.10;99.90;;;;;;6151933;23;20143;-90
2022/02/27 00:54:08;;;;;;;15.70;4.40;;;6.20;99.90;;;;;;6151526;23;20148;-90
2022/02/27 00:56:37;;;;;;;13.97;4.53;;;6.30;99.90;;;;;;6151592;23;20157;-90
2022/02/27 00:59:04;;;;;;;9.37;4.00;;;6.30;99.90;;;;;;6151468;23;20344;-90
2022/02/27 01:01:32;;;;;;;15.00;4.30;;;6.40;99.90;;;;;;6151240;23;20193;-90
2022/02/27 01:03:59;;;;;;;19.07;4.83;;;6.30;99.90;;;;;;6151243;23;20225;-90
2022/02/27 01:06:25;;;;;;;9.90;3.73;;;6.10;99.90;;;;;;6151396;23;20220;-92
2022/02/27 01:08:51;;;;;;;8.33;3.73;;;5.90;99.90;;;;;;6151592;23;20148;-91
2022/02/27 01:11:20;;;;;;;11.40;4.20;;;5.80;99.90;;;;;;6150932;23;20174;-91
2022/02/27 01:13:49;;;;;;;11.10;3.90;;;5.70;99.90;;;;;;6152051;23;20192;-90
2022/02/27 01:16:16;;;;;;;11.50;4.13;;;5.60;99.90;;;;;;6151299;23;20489;-90
2022/02/27 01:18:43;;;;;;;10.20;4.13;;;5.40;99.90;;;;;;6151557;23;20200;-90
2022/02/27 01:21:09;;;;;;;16.60;4.33;;;5.40;99.90;;;;;;6151292;23;20153;-90
2022/02/27 01:23:38;;;;;;;10.87;4.10;;;5.40;99.90;;;;;;6151039;23;20150;-91
2022/02/27 01:26:05;;;;;;;13.67;5.00;;;5.20;99.90;;;;;;6150674;23;20193;-90
2022/02/27 01:28:33;;;;;;;9.60;4.23;;;5.30;99.90;;;;;;6151620;23;20142;-90
2022/02/27 01:31:02;;;;;;;12.50;4.50;;;5.40;99.90;;;;;;6151532;23;20157;-90
2022/02/27 01:33:29;;;;;;;10.40;4.33;;;5.40;99.90;;;;;;6151530;23;20170;-90
2022/02/27 01:35:58;;;;;;;13.60;4.73;;;5.30;99.90;;;;;;6151221;23;20150;-91
2022/02/27 01:38:23;;;;;;;11.13;4.30;;;5.30;99.90;;;;;;6162485;23;20449;-90
2022/02/27 01:40:49;;;;;;;12.50;4.37;;;5.30;99.90;;;;;;6169740;23;20170;-90
2022/02/27 01:43:16;;;;;;;13.87;4.63;;;5.30;99.90;;;;;;6151653;23;20481;-91
2022/02/27 01:45:43;;;;;;;13.07;4.43;;;5.20;99.90;;;;;;6151042;23;20186;-91
2022/02/27 01:48:12;;;;;;;13.53;4.67;;;5.20;99.90;;;;;;6151488;23;20146;-90
2022/02/27 01:50:44;;;;;;;16.07;5.10;;;5.40;99.90;;;;;;6151456;23;20179;-90
2022/02/27 01:53:13;;;;;;;15.10;5.00;;;5.40;99.90;;;;;;6151256;23;20144;-90
2022/02/27 01:55:42;;;;;;;13.83;4.83;;;5.30;99.90;;;;;;6150712;23;20190;-90
2022/02/27 01:58:10;;;;;;;12.13;4.93;;;5.10;99.90;;;;;;6151025;23;20145;-90
2022/02/27 02:00:40;;;;;;;17.27;4.90;;;5.00;99.90;;;;;;6150854;23;20153;-91
2022/02/27 02:03:06;;;;;;;13.10;4.70;;;5.00;99.90;;;;;;6150762;23;20531;-90
2022/02/27 02:05:33;;;;;;;12.97;4.77;;;4.80;99.90;;;;;;6150898;23;20287;-90
2022/02/27 02:08:02;;;;;;;12.07;4.57;;;4.60;99.90;;;;;;6150899;23;20141;-90
2022/02/27 02:10:27;;;;;;;15.03;5.27;;;4.70;99.90;;;;;;6150966;23;20168;-90
2022/02/27 02:12:55;;;;;;;14.90;5.70;;;4.90;99.90;;;;;;6150346;23;20208;-90
2022/02/27 02:15:30;;;;;;;15.67;4.80;;;4.80;99.90;;;;;;6150491;23;20147;-90
2022/02/27 02:17:58;;;;;;;14.03;5.57;;;4.80;99.90;;;;;;6150833;23;20229;-92
2022/02/27 02:20:27;;;;;;;21.07;5.13;;;4.90;99.90;;;;;;6150811;23;20160;-91
2022/02/27 02:22:53;;;;;;;13.93;5.23;;;4.90;99.90;;;;;;6150525;23;20149;-91
2022/02/27 02:25:22;;;;;;;15.37;5.97;;;4.80;99.90;;;;;;6150915;23;20228;-92
2022/02/27 02:27:48;;;;;;;15.70;5.40;;;4.80;99.90;;;;;;6150747;23;20149;-91
2022/02/27 02:30:14;;;;;;;16.17;5.40;;;4.70;99.90;;;;;;6150690;23;20248;-91
2022/02/27 02:32:55;;;;;;;20.50;6.17;;;4.50;99.90;;;;;;6151075;23;20146;-91
2022/02/27 02:35:22;;;;;;;9.73;5.03;;;4.60;99.90;;;;;;6150852;23;20167;-91
2022/02/27 02:37:51;;;;;;;12.43;4.80;;;4.50;99.90;;;;;;6150827;23;20145;-91
2022/02/27 02:40:17;;;;;;;20.17;5.53;;;4.50;99.90;;;;;;6152414;23;20160;-91
2022/02/27 02:42:46;;;;;;;11.97;5.17;;;4.60;99.90;;;;;;6151987;23;20162;-91
2022/02/27 02:45:15;;;;;;;12.13;4.97;;;4.50;99.90;;;;;;6152010;23;20185;-91
2022/02/27 02:47:46;;;;;;;10.13;4.33;;;4.60;99.90;;;;;;6152072;23;20159;-91
2022/02/27 02:50:15;;;;;;;15.77;4.60;;;4.60;99.90;;;;;;6151878;23;20170;-89
2022/02/27 02:52:44;;;;;;;11.43;4.87;;;4.50;99.90;;;;;;6151381;23;20158;-91
2022/02/27 02:55:19;;;;;;;14.10;4.47;;;4.50;99.90;;;;;;6151413;23;20165;-91
2022/02/27 02:57:48;;;;;;;14.70;4.53;;;4.50;99.90;;;;;;6151221;23;20151;-91
2022/02/27 03:00:17;;;;;;;12.70;4.37;;;4.50;99.90;;;;;;6151544;23;20158;-91
2022/02/27 03:02:43;;;;;;;12.93;4.97;;;4.50;99.90;;;;;;6151537;23;20225;-91
2022/02/27 03:05:09;;;;;;;12.83;4.50;;;4.40;99.90;;;;;;6151888;23;20204;-90
2022/02/27 03:07:40;;;;;;;13.47;4.30;;;4.40;99.90;;;;;;6150717;22;20157;-91
2022/02/27 03:10:08;;;;;;;10.43;4.30;;;4.40;99.90;;;;;;6151341;23;20154;-90
2022/02/27 03:12:37;;;;;;;14.67;5.23;;;4.60;99.90;;;;;;6151537;23;20177;-90
2022/02/27 03:15:06;;;;;;;13.93;4.07;;;4.80;99.90;;;;;;6151481;23;20200;-88
2022/02/27 03:17:34;;;;;;;18.13;4.30;;;4.60;99.90;;;;;;6152740;23;20149;-90
2022/02/27 03:20:04;;;;;;;9.00;4.37;;;4.40;99.90;;;;;;6155292;23;20176;-90
2022/02/27 03:22:31;;;;;;;12.30;4.03;;;4.30;99.90;;;;;;6155800;23;20154;-91
2022/02/27 03:25:00;;;;;;;8.20;3.77;;;4.30;99.90;;;;;;6161428;23;20209;-92
2022/02/27 03:27:29;;;;;;;10.00;3.40;;;4.30;99.90;;;;;;6151621;23;20149;-90
2022/02/27 03:29:56;;;;;;;10.33;3.97;;;4.40;99.90;;;;;;6151614;23;20149;-93
2022/02/27 03:32:23;;;;;;;13.87;4.23;;;4.40;99.90;;;;;;6151660;23;20153;-90
2022/02/27 03:34:51;;;;;;;10.93;4.20;;;4.30;99.90;;;;;;6151207;23;20149;-90
2022/02/27 03:37:17;;;;;;;9.63;4.00;;;4.30;99.90;;;;;;6151363;23;20181;-90
2022/02/27 03:39:44;;;;;;;9.03;4.10;;;4.40;99.90;;;;;;6151301;23;20172;-94
2022/02/27 03:42:12;;;;;;;12.67;4.13;;;4.30;99.90;;;;;;6151800;23;20149;-92
2022/02/27 03:44:46;;;;;;;12.97;4.17;;;4.40;99.90;;;;;;6151671;23;20146;-92
2022/02/27 03:47:18;;;;;;;11.90;3.60;;;4.40;99.90;;;;;;6151534;23;20232;-92
2022/02/27 03:49:44;;;;;;;14.27;3.63;;;4.20;99.90;;;;;;6151150;23;20175;-92
2022/02/27 03:52:11;;;;;;;11.10;3.77;;;4.30;99.90;;;;;;6151441;23;20169;-93
2022/02/27 03:54:39;;;;;;;12.47;4.10;;;4.30;99.90;;;;;;6151396;23;20207;-93
2022/02/27 03:57:04;;;;;;;14.60;3.67;;;4.20;99.90;;;;;;6151086;23;20153;-92
2022/02/27 03:59:36;;;;;;;11.23;3.70;;;4.40;99.90;;;;;;6150598;23;20534;-92
2022/02/27 04:02:03;;;;;;;11.43;3.43;;;4.30;99.90;;;;;;6151123;23;20219;-92
2022/02/27 04:04:32;;;;;;;14.53;3.90;;;4.10;99.90;;;;;;6150547;23;20145;-93
2022/02/27 04:06:59;;;;;;;10.03;3.70;;;4.20;99.90;;;;;;6151246;23;20146;-92
2022/02/27 04:09:27;;;;;;;13.17;3.70;;;4.20;99.90;;;;;;6151063;23;20152;-92
2022/02/27 04:11:53;;;;;;;12.30;3.73;;;3.90;99.90;;;;;;6150916;23;20174;-92
2022/02/27 04:14:21;;;;;;;9.83;3.53;;;4.00;99.90;;;;;;6151226;23;20152;-92
2022/02/27 04:16:47;;;;;;;5.30;3.20;;;3.90;99.90;;;;;;6151077;23;20227;-92
2022/02/27 04:19:13;;;;;;;8.13;3.20;;;4.00;99.90;;;;;;6158924;23;20149;-92
2022/02/27 04:21:39;;;;;;;10.77;3.60;;;4.00;99.90;;;;;;6167459;23;20442;-92
2022/02/27 04:24:12;;;;;;;7.27;3.60;;;4.00;99.90;;;;;;6155029;23;20149;-91
2022/02/27 04:26:40;;;;;;;8.00;3.50;;;4.00;99.90;;;;;;6151135;23;20238;-91
2022/02/27 04:29:08;;;;;;;13.47;3.27;;;3.90;99.90;;;;;;6151172;23;20142;-92
2022/02/27 04:31:34;;;;;;;9.47;3.30;;;3.90;99.90;;;;;;6151934;23;20528;-92
2022/02/27 04:34:03;;;;;;;8.87;3.20;;;3.90;99.90;;;;;;6151503;23;20190;-93
2022/02/27 04:36:35;;;;;;;9.97;3.67;;;3.80;99.90;;;;;;6152142;23;20142;-92
2022/02/27 04:39:02;;;;;;;10.37;3.30;;;3.80;99.90;;;;;;6151397;23;20601;-93
2022/02/27 04:41:31;;;;;;;13.37;3.50;;;3.90;99.90;;;;;;6151548;23;20149;-93
2022/02/27 04:44:00;;;;;;;9.60;3.40;;;3.80;99.90;;;;;;6151594;23;20573;-91
2022/02/27 04:46:34;;;;;;;11.50;3.00;;;3.90;99.90;;;;;;6151415;23;20264;-92
2022/02/27 04:49:00;;;;;;;8.00;3.00;;;3.90;99.90;;;;;;6151204;23;20173;-92
2022/02/27 04:51:26;;;;;;;13.27;3.57;;;4.00;99.90;;;;;;6151636;23;20153;-92
2022/02/27 04:53:53;;;;;;;9.43;3.40;;;3.90;99.90;;;;;;6151404;23;20596;-92
2022/02/27 04:56:21;;;;;;;14.17;3.80;;;4.00;99.90;;;;;;6151429;23;20156;-92
2022/02/27 04:58:48;;;;;;;10.13;3.47;;;4.00;99.90;;;;;;6151330;23;20184;-91
2022/02/27 05:01:17;;;;;;;9.53;2.70;;;3.70;99.90;;;;;;6150869;23;20156;-91
2022/02/27 05:03:46;;;;;;;10.23;3.53;;;3.70;99.90;;;;;;6151012;23;20165;-91
2022/02/27 05:06:17;;;;;;;8.13;2.60;;;3.70;99.90;;;;;;6151882;23;20185;-91
2022/02/27 05:08:46;;;;;;;9.80;3.97;;;3.80;99.90;;;;;;6151412;22;20138;-91
2022/02/27 05:11:17;;;;;;;9.33;2.67;;;3.80;99.90;;;;;;6151405;23;20203;-91
2022/02/27 05:13:46;;;;;;;8.70;3.23;;;3.80;99.90;;;;;;6151125;23;20205;-92
2022/02/27 05:16:11;;;;;;;6.10;2.60;;;3.70;99.90;;;;;;6151324;23;20229;-92
2022/02/27 05:18:39;;;;;;;13.80;2.97;;;3.80;99.90;;;;;;6151174;23;20152;-91
2022/02/27 05:21:08;;;;;;;8.23;3.13;;;3.70;99.90;;;;;;6150926;23;20225;-92
2022/02/27 05:23:36;;;;;;;7.43;2.77;;;3.60;99.90;;;;;;6151225;23;20314;-92
2022/02/27 05:26:05;;;;;;;6.73;2.83;;;3.50;99.90;;;;;;6151461;23;20177;-92
2022/02/27 05:28:37;;;;;;;7.70;2.83;;;3.60;99.90;;;;;;6151263;23;20149;-91
2022/02/27 05:31:02;;;;;;;12.50;3.30;;;3.60;99.90;;;;;;6150981;23;20149;-91
2022/02/27 05:33:40;;;;;;;11.07;2.60;;;3.60;99.90;;;;;;6151166;23;20158;-92
2022/02/27 05:36:09;;;;;;;7.10;2.47;;;3.40;99.90;;;;;;6151179;23;20156;-92
2022/02/27 05:38:38;;;;;;;9.77;3.10;;;3.40;99.90;;;;;;6150976;23;20481;-92
2022/02/27 05:41:07;;;;;;;8.93;2.67;;;3.40;99.90;;;;;;6151259;23;20150;-92
2022/02/27 05:43:34;;;;;;;10.03;3.60;;;3.50;99.90;;;;;;6151046;23;20184;-92
2022/02/27 05:46:01;;;;;;;6.20;2.63;;;3.60;99.90;;;;;;6150877;23;20188;-92
2022/02/27 05:48:28;;;;;;;13.67;3.10;;;3.60;99.90;;;;;;6150960;23;20146;-92
2022/02/27 05:50:57;;;;;;;7.87;2.60;;;3.50;99.90;;;;;;6150981;23;20150;-91
2022/02/27 05:53:23;;;;;;;8.33;3.00;;;3.50;99.90;;;;;;6151729;23;20157;-92
2022/02/27 05:55:56;;;;;;;5.67;2.80;;;3.50;99.90;;;;;;6150808;23;20228;-91
2022/02/27 05:58:24;;;;;;;10.83;3.00;;;3.40;99.90;;;;;;6150825;23;20514;-95
2022/02/27 06:00:52;;;;;;;5.47;2.70;;;3.30;99.90;;;;;;6150510;23;20150;-92
2022/02/27 06:03:21;;;;;;;9.00;3.07;;;3.30;99.90;;;;;;6151167;23;20149;-91
2022/02/27 06:05:47;;;;;;;10.20;2.80;;;3.30;99.90;;;;;;6150858;23;20222;-91
2022/02/27 06:08:17;;;;;;;10.63;2.90;;;3.30;99.90;;;;;;6150822;23;20149;-91
2022/02/27 06:10:46;;;;;;;7.77;2.83;;;3.30;99.90;;;;;;6150847;23;20146;-91
2022/02/27 06:13:13;;;;;;;9.20;2.77;;;3.20;99.90;;;;;;6151920;23;20184;-91
2022/02/27 06:15:42;;;;;;;7.17;2.93;;;3.30;99.90;;;;;;6151641;23;20153;-91
2022/02/27 06:18:11;;;;;;;9.20;2.60;;;3.40;99.90;;;;;;6152175;23;20217;-91
2022/02/27 06:20:38;;;;;;;8.80;2.77;;;3.40;99.90;;;;;;6152710;23;20224;-92
2022/02/27 06:23:09;;;;;;;9.13;2.60;;;3.40;99.90;;;;;;6162642;23;20162;-92
2022/02/27 06:25:36;;;;;;;7.73;2.80;;;3.40;99.90;;;;;;6160332;23;20181;-92
2022/02/27 06:28:03;;;;;;;5.03;2.53;;;3.30;99.90;;;;;;6162955;22;20237;-92
2022/02/27 06:30:31;;;;;;;13.23;3.10;;;3.40;99.90;;;;;;6154923;23;20224;-93
2022/02/27 06:32:59;;;;;;;13.60;2.90;;;3.40;99.90;;;;;;6152310;23;20149;-92
2022/02/27 06:35:27;;;;;;;11.77;2.53;;;3.40;99.90;;;;;;6151999;23;20145;-92
2022/02/27 06:37:56;;;;;;;7.40;2.70;;;3.40;99.90;;;;;;6151967;23;20156;-92
2022/02/27 06:40:25;;;;;;;8.40;2.40;;;3.40;99.90;;;;;;6151779;23;20156;-92
2022/02/27 06:42:52;;;;;;;6.20;2.90;;;3.50;99.90;;;;;;6151817;23;20574;-91
2022/02/27 06:45:17;;;;;;;8.67;2.50;;;3.40;99.90;;;;;;6151684;23;20177;-91
2022/02/27 06:47:46;;;;;;;4.93;2.30;;;3.30;99.90;;;;;;6151821;23;20183;-90
2022/02/27 06:50:14;;;;;;;7.03;2.83;;;3.50;99.90;;;;;;6152017;23;20173;-90
2022/02/27 06:52:40;;;;;;;11.97;2.90;;;3.40;99.90;;;;;;6152097;23;20171;-90
2022/02/27 06:55:06;;;;;;;9.43;3.40;;;3.40;99.90;;;;;;6151780;23;20248;-90
2022/02/27 06:57:35;;;;;;;10.50;3.17;;;3.40;99.90;;;;;;6152294;23;20153;-90
2022/02/27 07:00:06;;;;;;;8.80;3.30;;;3.50;99.90;;;;;;6151962;23;20527;-90
2022/02/27 07:02:34;;;;;;;7.80;2.53;;;3.50;99.90;;;;;;6153233;23;20203;-91
2022/02/27 07:05:00;;;;;;;12.97;3.07;;;3.50;99.90;;;;;;6156911;23;20181;-91
2022/02/27 07:07:28;;;;;;;7.30;2.30;;;3.40;99.90;;;;;;6158421;23;20205;-92
2022/02/27 07:10:00;;;;;;;8.67;2.97;;;3.30;99.90;;;;;;6160750;23;20149;-90
2022/02/27 07:12:35;;;;;;;9.53;2.87;;;3.40;99.90;;;;;;6153574;23;20276;-90
2022/02/27 07:15:03;;;;;;;8.37;2.87;;;3.50;99.90;;;;;;6151935;23;20601;-91
2022/02/27 07:17:32;;;;;;;6.23;2.70;;;3.50;99.90;;;;;;6151628;23;20146;-90
2022/02/27 07:19:57;;;;;;;7.37;3.00;;;3.60;99.90;;;;;;6152165;23;20150;-88
2022/02/27 07:22:26;;;;;;;7.53;2.80;;;3.40;99.90;;;;;;6152419;23;20236;-91
2022/02/27 07:24:55;;;;;;;7.37;3.13;;;3.40;99.90;;;;;;6151604;23;20154;-91
2022/02/27 07:27:24;;;;;;;8.03;2.77;;;3.30;99.90;;;;;;6151690;23;20154;-91
2022/02/27 07:29:53;;;;;;;9.27;2.57;;;3.50;99.90;;;;;;6151875;23;20218;-90
2022/02/27 07:32:21;;;;;;;7.17;3.00;;;3.40;99.90;;;;;;6152349;23;20210;-91
2022/02/27 07:34:50;;;;;;;9.40;2.57;;;3.50;99.90;;;;;;6151797;23;20165;-91
2022/02/27 07:37:17;;;;;;;11.70;3.53;;;3.40;99.90;;;;;;6151722;23;20554;-90
2022/02/27 07:39:45;;;;;;;8.10;2.37;;;3.50;99.90;;;;;;6151976;23;20153;-90
2022/02/27 07:42:14;;;;;;;7.90;2.90;;;3.50;99.90;;;;;;6151540;23;20161;-90
2022/02/27 07:44:46;;;;;;;8.30;2.63;;;3.50;99.90;;;;;;6151880;23;20157;-91
2022/02/27 07:47:13;;;;;;;10.87;2.60;;;3.50;99.90;;;;;;6151701;23;20150;-90
2022/02/27 07:49:40;;;;;;;5.27;2.73;;;3.40;99.90;;;;;;6151747;23;20170;-91
2022/02/27 07:52:06;;;;;;;4.93;2.40;;;3.60;99.90;;;;;;6151801;23;20149;-89
2022/02/27 07:54:32;;;;;;;7.00;2.57;;;3.70;99.90;;;;;;6151793;23;20157;-90
2022/02/27 07:57:01;;;;;;;7.63;2.53;;;3.80;99.90;;;;;;6151227;23;20141;-90
2022/02/27 07:59:30;;;;;;;4.60;2.50;;;3.90;99.90;;;;;;6151419;23;20173;-91
2022/02/27 08:02:06;;;;;;;12.10;3.13;;;4.10;99.90;;;;;;6151240;23;20146;-90
2022/02/27 08:04:38;;;;;;;10.43;3.00;;;4.10;99.90;;;;;;6151088;23;20149;-90
2022/02/27 08:07:06;;;;;;;10.40;2.70;;;4.10;99.90;;;;;;6151121;23;20836;-90
2022/02/27 08:09:34;;;;;;;8.20;2.67;;;4.00;99.90;;;;;;6151294;23;20146;-90
2022/02/27 08:12:03;;;;;;;13.27;2.87;;;4.10;99.90;;;;;;6150300;23;20224;-89
2022/02/27 08:14:30;;;;;;;9.87;2.90;;;4.10;99.90;;;;;;6150840;23;20174;-89
2022/02/27 08:16:57;;;;;;;10.00;2.50;;;4.40;99.90;;;;;;6150672;23;20569;-88
2022/02/27 08:19:23;;;;;;;9.87;2.43;;;4.40;99.90;;;;;;6151109;23;20153;-88
2022/02/27 08:21:49;;;;;;;8.73;3.00;;;4.50;99.90;;;;;;6151500;23;20150;-90
2022/02/27 08:24:16;;;;;;;11.40;2.93;;;4.60;99.90;;;;;;6151530;23;20177;-89
2022/02/27 08:26:44;;;;;;;7.60;2.87;;;4.70;99.90;;;;;;6151186;23;20181;-89
2022/02/27 08:29:13;;;;;;;7.33;2.80;;;4.80;99.90;;;;;;6151294;23;20149;-90
2022/02/27 08:31:42;;;;;;;7.03;2.50;;;4.90;99.90;;;;;;6151783;23;20242;-89
2022/02/27 08:34:09;;;;;;;4.77;2.70;;;5.00;99.90;;;;;;6151232;23;20156;-89
2022/02/27 08:36:37;;;;;;;6.97;2.73;;;5.00;99.90;;;;;;6151316;23;20172;-89
2022/02/27 08:39:06;;;;;;;7.87;2.67;;;5.10;99.90;;;;;;6151478;23;20146;-89
2022/02/27 08:41:37;;;;;;;7.40;2.57;;;5.20;99.90;;;;;;6151331;23;20522;-89
2022/02/27 08:44:06;;;;;;;5.93;2.90;;;5.30;99.90;;;;;;6151169;23;20593;-90
2022/02/27 08:46:33;;;;;;;6.87;2.80;;;5.40;99.90;;;;;;6151481;23;20178;-90
2022/02/27 08:49:02;;;;;;;8.70;3.00;;;5.50;99.90;;;;;;6151229;23;20174;-90
2022/02/27 08:51:31;;;;;;;10.33;3.00;;;5.40;99.90;;;;;;6151443;23;20172;-89
2022/02/27 08:53:56;;;;;;;6.63;2.80;;;5.50;99.90;;;;;;6151083;23;20145;-90
2022/02/27 08:56:22;;;;;;;8.10;2.73;;;5.50;99.90;;;;;;6151435;23;20666;-89
2022/02/27 08:58:51;;;;;;;11.90;3.07;;;5.60;99.90;;;;;;6150821;23;20157;-89
2022/02/27 09:01:18;;;;;;;8.23;3.57;;;5.70;99.90;;;;;;6151657;23;20250;-89
2022/02/27 09:03:47;;;;;;;7.90;2.87;;;5.80;99.90;;;;;;6151423;23;20153;-89
2022/02/27 09:06:13;;;;;;;9.53;2.70;;;5.90;99.90;;;;;;6151160;23;20510;-90
2022/02/27 09:08:42;;;;;;;9.43;2.90;;;5.90;99.90;;;;;;6150672;23;20149;-89
2022/02/27 09:11:11;;;;;;;6.80;2.80;;;5.90;99.90;;;;;;6151439;23;20520;-90
2022/02/27 09:13:36;;;;;;;6.00;2.63;;;6.00;99.90;;;;;;6151333;23;20261;-89
2022/02/27 09:16:06;;;;;;;10.60;2.70;;;6.10;99.90;;;;;;6151306;23;20181;-89
2022/02/27 09:18:35;;;;;;;5.20;2.67;;;6.00;99.90;;;;;;6151279;23;20153;-89
2022/02/27 09:21:01;;;;;;;8.30;2.63;;;6.10;99.90;;;;;;6151328;23;20142;-89
2022/02/27 09:23:27;;;;;;;4.60;2.90;;;6.20;99.90;;;;;;6151369;23;20146;-89
2022/02/27 09:25:54;;;;;;;7.03;3.50;;;6.30;99.90;;;;;;6151198;23;20213;-90
2022/02/27 09:28:24;;;;;;;8.10;2.90;;;6.40;99.90;;;;;;6151362;23;20584;-89
2022/02/27 09:30:50;;;;;;;6.53;3.00;;;6.30;99.90;;;;;;6151129;23;20530;-89
2022/02/27 09:33:19;;;;;;;7.83;2.90;;;6.30;99.90;;;;;;6151191;23;20165;-89
2022/02/27 09:35:49;;;;;;;5.73;2.40;;;6.30;99.90;;;;;;6151180;23;20590;-88
2022/02/27 09:38:16;;;;;;;6.90;2.57;;;6.30;99.90;;;;;;6150681;23;20253;-88
2022/02/27 09:40:47;;;;;;;4.67;2.40;;;6.50;99.90;;;;;;6150894;23;20149;-88
2022/02/27 09:43:16;;;;;;;5.13;2.17;;;6.50;99.50;;;;;;6143264;23;20522;-87
2022/02/27 09:45:46;;;;;;;7.53;2.33;;;6.70;98.00;;;;;;6150172;23;20627;-86
2022/02/27 09:48:13;;;;;;;5.20;2.30;;;6.60;97.60;;;;;;6150554;23;20151;-85
2022/02/27 09:50:48;;;;;;;5.40;2.17;;;6.60;97.90;;;;;;6150795;23;20151;-86
2022/02/27 09:53:17;;;;;;;8.60;2.40;;;6.60;97.90;;;;;;6150242;23;20225;-86
2022/02/27 09:55:47;;;;;;;4.67;2.20;;;6.70;97.80;;;;;;6150009;23;20238;-88
2022/02/27 09:58:16;;;;;;;5.37;1.80;;;6.80;97.40;;;;;;6149687;23;20162;-87
2022/02/27 10:00:42;;;;;;;4.93;2.03;;;6.90;97.20;;;;;;6150515;23;20158;-87
2022/02/27 10:03:16;;;;;;;4.87;1.77;;;7.00;96.90;;;;;;6150679;23;20138;-87
2022/02/27 10:05:44;;;;;;;4.83;2.03;;;7.00;96.40;;;;;;6150662;23;20186;-88
2022/02/27 10:08:11;;;;;;;6.53;1.90;;;7.00;96.70;;;;;;6150534;23;20159;-86
2022/02/27 10:10:53;;;;;;;4.30;2.17;;;7.00;96.80;;;;;;6150786;23;20174;-87
2022/02/27 10:13:44;;;;;;;6.83;1.87;;;7.10;96.60;;;;;;6150284;23;20180;-88
2022/02/27 10:16:13;;;;;;;4.67;1.90;;;7.20;96.10;;;;;;6150541;23;20148;-88
2022/02/27 10:18:41;;;;;;;5.50;2.00;;;7.30;96.10;;;;;;6150776;23;20155;-88
2022/02/27 10:21:41;;;;;;;3.77;1.90;;;7.50;96.10;;;;;;6150367;23;20203;-88
2022/02/27 10:24:15;;;;;;;4.83;1.40;;;7.50;95.40;;;;;;6150644;23;20166;-88
2022/02/27 10:26:44;;;;;;;6.03;1.97;;;7.30;96.00;;;;;;6150763;23;20177;-88
2022/02/27 10:29:24;;;;;;;5.03;2.17;;;7.30;96.30;;;;;;6150773;23;20152;-88
2022/02/27 10:31:54;;;;;;;7.43;1.80;;;7.40;96.50;;;;;;6150675;23;20155;-88
2022/02/27 10:34:29;;;;;;;2.67;1.90;;;7.50;96.00;;;;;;6121069;23;20178;-88
2022/02/27 10:37:20;;;;;;;7.50;1.93;;;7.60;96.20;;;;;;6120668;23;20680;-87
2022/02/27 10:39:51;;;;;;;4.07;2.00;;;7.70;95.50;;;;;;6121072;23;20145;-88
2022/02/27 10:42:21;;;;;;;5.17;2.23;;;7.70;95.50;;;;;;6119334;23;20157;-87
2022/02/27 10:45:05;;;;;;;4.17;1.90;;;7.70;95.80;;;;;;6120839;23;20157;-87
2022/02/27 10:47:36;;;;;;;4.97;2.20;;;7.90;95.80;;;;;;6121166;23;20532;-88
2022/02/27 10:50:16;;;;;;;5.40;1.60;;;7.90;95.70;;;;;;6120633;23;20174;-88
2022/02/27 10:52:46;;;;;;;7.17;2.03;;;8.00;95.10;;;;;;6120951;23;20180;-88
2022/02/27 10:55:14;;;;;;;6.00;2.10;;;8.10;95.20;;;;;;6120900;23;20188;-88
2022/02/27 10:57:49;;;;;;;5.43;2.10;;;8.30;95.00;;;;;;6121014;23;20147;-87
2022/02/27 11:00:29;;;;;;;2.30;1.37;;;8.30;95.20;;;;;;6122342;23;20597;-86
2022/02/27 11:03:04;;;;;;;1.80;1.10;;;8.80;92.80;;;;;;6122722;23;20292;-87
2022/02/27 11:05:32;;;;;;;3.30;1.30;;;9.60;91.10;;;;;;6121880;23;20185;-87
2022/02/27 11:08:01;;;;;;;5.27;1.40;;;10.50;90.20;;;;;;6123264;23;20134;-87
2022/02/27 11:10:30;;;;;;;3.10;1.30;;;11.80;87.70;;;;;;6122136;23;20203;-87
2022/02/27 11:13:06;;;;;;;2.60;1.13;;;13.10;84.10;;;;;;6122088;23;20160;-87
2022/02/27 11:15:33;;;;;;;3.73;0.97;;;14.40;78.70;;;;;;6122665;23;20189;-88
2022/02/27 11:18:02;;;;;;;4.33;1.00;;;15.30;76.50;;;;;;6122070;23;20141;-85
2022/02/27 11:20:31;;;;;;;1.60;1.03;;;16.40;73.40;;;;;;6122190;23;20149;-85
2022/02/27 11:22:58;;;;;;;2.80;1.47;;;17.10;67.70;;;;;;6122322;23;20143;-86
2022/02/27 11:25:26;;;;;;;2.33;1.10;;;17.60;66.00;;;;;;6122259;23;20634;-87
2022/02/27 11:28:05;;;;;;;2.10;1.10;;;18.30;63.60;;;;;;6122082;23;20145;-86
2022/02/27 11:30:44;;;;;;;2.43;1.07;;;18.70;60.20;;;;;;6122186;23;20145;-86
2022/02/27 11:33:22;;;;;;;2.67;0.93;;;19.10;59.50;;;;;;6122043;23;20154;-88
2022/02/27 11:36:01;;;;;;;2.93;0.90;;;19.70;59.00;;;;;;6122201;23;20176;-85
2022/02/27 11:38:30;;;;;;;1.50;0.80;;;20.20;57.60;;;;;;6122140;23;20223;-86
2022/02/27 11:41:17;;;;;;;2.07;1.00;;;20.60;55.60;;;;;;6123393;23;20474;-86
2022/02/27 11:43:53;;;;;;;3.20;0.90;;;21.10;54.90;;;;;;6121896;23;20236;-86
2022/02/27 11:46:43;;;;;;;1.93;0.90;;;21.40;53.40;;;;;;6123356;23;20265;-88
2022/02/27 11:49:25;;;;;;;2.53;0.93;;;21.40;51.80;;;;;;6117151;23;20204;-88
2022/02/27 11:51:58;;;;;;;2.47;0.83;;;21.50;52.30;;;;;;6122161;23;20146;-86
2022/02/27 11:54:34;;;;;;;4.00;1.20;;;22.00;52.50;;;;;;6122037;23;20161;-88
2022/02/27 11:57:13;;;;;;;1.93;0.97;;;22.50;51.20;;;;;;6121660;23;20177;-90
2022/02/27 12:00:02;;;;;;;1.73;0.90;;;23.20;49.60;;;;;;6121955;23;20173;-86
2022/02/27 12:02:48;;;;;;;1.80;1.10;;;23.30;49.30;;;;;;6121979;23;20158;-89
2022/02/27 12:05:18;;;;;;;2.00;0.80;;;23.80;48.00;;;;;;6121952;23;20178;-91
2022/02/27 12:08:05;;;;;;;2.93;1.27;;;23.40;48.70;;;;;;6121865;23;20225;-91
2022/02/27 12:10:47;;;;;;;2.03;1.27;;;23.90;47.20;;;;;;6122053;23;20574;-88
2022/02/27 12:13:17;;;;;;;2.73;1.03;;;24.30;46.40;;;;;;6121928;23;20150;-90
2022/02/27 12:15:46;;;;;;;1.90;0.90;;;24.40;46.30;;;;;;6121889;23;20169;-89
2022/02/27 12:18:17;;;;;;;2.37;1.20;;;24.60;45.80;;;;;;6121724;23;20146;-91
2022/02/27 12:20:58;;;;;;;2.83;1.67;;;25.00;45.60;;;;;;6123487;23;20141;-90
2022/02/27 12:23:41;;;;;;;3.93;1.37;;;25.20;44.80;;;;;;6122443;23;20320;-90
2022/02/27 12:26:31;;;;;;;4.30;1.47;;;25.60;44.90;;;;;;6121611;23;20189;-89
2022/02/27 12:28:58;;;;;;;2.07;1.27;;;25.60;43.90;;;;;;6121818;23;20165;-88
2022/02/27 12:31:32;;;;;;;1.70;1.20;;;25.70;44.10;;;;;;6123459;23;20150;-91
2022/02/27 12:34:18;;;;;;;1.50;1.07;;;25.80;44.10;;;;;;6122563;23;20237;-92
2022/02/27 12:36:57;;;;;;;2.23;1.20;;;26.10;43.30;;;;;;6121925;23;20154;-92
2022/02/27 12:39:24;;;;;;;2.57;1.60;;;26.70;42.50;;;;;;6121749;23;20579;-91
2022/02/27 12:41:54;;;;;;;1.90;1.10;;;26.40;42.40;;;;;;6123167;23;20150;-91
2022/02/27 12:44:25;;;;;;;2.10;1.27;;;26.30;42.60;;;;;;6122046;23;20716;-91
2022/02/27 12:46:55;;;;;;;2.87;1.40;;;26.30;42.70;;;;;;6122887;23;20674;-91
2022/02/27 13:52:23;;;;;;;3.07;1.10;;;28.10;39.10;;;;;;6121340;23;20209;-93
2022/02/27 13:54:54;;;;;;;3.60;3.27;;;28.40;39.20;;;;;;6121752;23;20225;-93
2022/02/27 13:57:33;;;;;;;2.33;1.30;;;28.50;39.20;;;;;;6121817;23;20146;-95
2022/02/27 14:00:12;;;;;;;1.45;1.30;;;28.70;38.60;;;;;;6123262;23;20150;-94
2022/02/27 14:02:43;;;;;;;2.30;1.60;;;28.60;38.70;;;;;;6121522;23;20157;-94
2022/02/27 14:05:18;;;;;;;1.63;1.20;;;28.70;38.90;;;;;;6121736;23;20639;-94